HAZ4813 ZYTX-ZBYN
Flight info
| Callsign | HAZ4813 |
|---|---|
| Flight time | N/A |
| Altitude | 32100 |
| Route | OMDUS A575 CHG G332 MUDAM G212 VYK B215 EKETA DCT TYN |
| Aircraft | B738/M-SDE2E3FGHIRWXY/LB1 |
Departure
| Time | N/A |
|---|---|
| Airport | Shenyang Taoxian International Airport (ZYTX) |
Arrival
| Time | 2026-05-06 00:45 |
|---|---|
| Airport | Taiyuan Wusu International Airport (ZBYN) |
| Time | Latitude | Longitude | Altitude | Speed | Heading |
|---|---|---|---|---|---|
| 2026-05-05 23:13 | 41.67891 | 121.90766 | 29532 ft | 306 kts | 263° |
| 2026-05-05 23:14 | 41.67500 | 121.87976 | 29711 ft | 307 kts | 262° |
| 2026-05-05 23:14 | 41.67097 | 121.85122 | 29900 ft | 307 kts | 263° |
| 2026-05-05 23:14 | 41.66702 | 121.82317 | 30106 ft | 307 kts | 262° |
| 2026-05-05 23:14 | 41.66305 | 121.79510 | 30292 ft | 307 kts | 263° |
| 2026-05-05 23:15 | 41.65906 | 121.76696 | 30447 ft | 308 kts | 263° |
| 2026-05-05 23:15 | 41.65506 | 121.73875 | 30571 ft | 310 kts | 263° |
| 2026-05-05 23:15 | 41.65104 | 121.71034 | 30687 ft | 312 kts | 263° |
| 2026-05-05 23:15 | 41.64727 | 121.68378 | 30824 ft | 313 kts | 263° |
| 2026-05-05 23:16 | 41.64323 | 121.65534 | 31058 ft | 311 kts | 263° |
| 2026-05-05 23:16 | 41.63916 | 121.62675 | 31242 ft | 310 kts | 263° |
| 2026-05-05 23:16 | 41.63515 | 121.59869 | 31461 ft | 308 kts | 264° |
| 2026-05-05 23:16 | 41.63112 | 121.57039 | 31591 ft | 309 kts | 264° |
| 2026-05-05 23:17 | 41.62309 | 121.51420 | 31722 ft | 314 kts | 264° |
| 2026-05-05 23:17 | 41.61897 | 121.48552 | 31824 ft | 315 kts | 264° |
| 2026-05-05 23:17 | 41.61594 | 121.46451 | 31954 ft | 314 kts | 265° |
| 2026-05-05 23:18 | 41.61034 | 121.42586 | 32130 ft | 313 kts | 264° |
| 2026-05-05 23:18 | 41.60444 | 121.38507 | 32127 ft | 316 kts | 264° |
| 2026-05-05 23:19 | 41.59603 | 121.32709 | 32125 ft | 320 kts | 264° |
| 2026-05-05 23:19 | 41.59039 | 121.28842 | 32127 ft | 323 kts | 264° |
| 2026-05-05 23:20 | 41.58510 | 121.25227 | 32125 ft | 325 kts | 263° |
| 2026-05-05 23:20 | 41.57638 | 121.19228 | 32039 ft | 335 kts | 264° |
| 2026-05-05 23:21 | 41.57210 | 121.14602 | 31978 ft | 346 kts | 269° |
| 2026-05-05 23:21 | 41.56971 | 121.09181 | 31976 ft | 360 kts | 270° |
| 2026-05-05 23:22 | 41.56691 | 121.02350 | 31973 ft | 377 kts | 270° |
| 2026-05-05 23:22 | 41.56366 | 120.95285 | 31975 ft | 388 kts | 269° |
| 2026-05-05 23:23 | 41.56012 | 120.88065 | 31964 ft | 388 kts | 269° |
| 2026-05-05 23:23 | 41.55647 | 120.80933 | 31965 ft | 385 kts | 269° |
| 2026-05-05 23:24 | 41.55272 | 120.73768 | 31967 ft | 385 kts | 270° |
| 2026-05-05 23:24 | 41.54989 | 120.68369 | 31969 ft | 386 kts | 269° |
| 2026-05-05 23:25 | 41.54622 | 120.61236 | 31971 ft | 383 kts | 269° |
| 2026-05-05 23:25 | 41.54250 | 120.54129 | 31967 ft | 386 kts | 269° |
| 2026-05-05 23:26 | 41.53865 | 120.47033 | 31970 ft | 385 kts | 269° |
| 2026-05-05 23:26 | 41.53276 | 120.39954 | 31972 ft | 385 kts | 265° |
| 2026-05-05 23:27 | 41.52188 | 120.32945 | 31975 ft | 388 kts | 262° |
| 2026-05-05 23:27 | 41.51028 | 120.25944 | 31964 ft | 385 kts | 262° |
| 2026-05-05 23:28 | 41.49891 | 120.18959 | 31978 ft | 385 kts | 262° |
| 2026-05-05 23:28 | 41.48777 | 120.11970 | 31981 ft | 385 kts | 263° |
| 2026-05-05 23:29 | 41.47670 | 120.05003 | 31977 ft | 387 kts | 263° |
| 2026-05-05 23:29 | 41.46579 | 119.98100 | 31979 ft | 382 kts | 262° |
| 2026-05-05 23:30 | 41.45479 | 119.91153 | 31973 ft | 385 kts | 262° |
| 2026-05-05 23:30 | 41.44360 | 119.84152 | 31982 ft | 387 kts | 262° |
| 2026-05-05 23:31 | 41.43245 | 119.77192 | 31981 ft | 384 kts | 263° |
| 2026-05-05 23:31 | 41.42120 | 119.70209 | 31979 ft | 384 kts | 263° |
| 2026-05-05 23:32 | 41.40997 | 119.63274 | 31980 ft | 384 kts | 263° |
| 2026-05-05 23:32 | 41.39872 | 119.56343 | 31990 ft | 383 kts | 263° |
| 2026-05-05 23:33 | 41.38734 | 119.49370 | 31988 ft | 385 kts | 263° |
| 2026-05-05 23:33 | 41.37598 | 119.42421 | 31988 ft | 386 kts | 262° |
| 2026-05-05 23:34 | 41.36459 | 119.35482 | 31978 ft | 383 kts | 262° |
| 2026-05-05 23:34 | 41.35319 | 119.28568 | 31982 ft | 385 kts | 262° |
| 2026-05-05 23:35 | 41.34170 | 119.21644 | 31985 ft | 381 kts | 262° |
| 2026-05-05 23:35 | 41.33019 | 119.14722 | 31991 ft | 383 kts | 262° |
| 2026-05-05 23:36 | 41.31871 | 119.07825 | 31989 ft | 385 kts | 262° |
| 2026-05-05 23:36 | 41.30705 | 119.00855 | 31978 ft | 383 kts | 262° |
| 2026-05-05 23:37 | 41.29549 | 118.93986 | 31989 ft | 386 kts | 262° |
| 2026-05-05 23:37 | 41.28374 | 118.87038 | 31985 ft | 383 kts | 262° |
| 2026-05-05 23:38 | 41.27205 | 118.80128 | 31980 ft | 384 kts | 262° |
| 2026-05-05 23:38 | 41.26031 | 118.73230 | 31989 ft | 384 kts | 261° |
| 2026-05-05 23:39 | 41.24848 | 118.66314 | 31977 ft | 382 kts | 262° |
| 2026-05-05 23:39 | 41.23675 | 118.59471 | 31976 ft | 381 kts | 262° |
| 2026-05-05 23:40 | 41.22394 | 118.52594 | 31970 ft | 383 kts | 260° |
| 2026-05-05 23:40 | 41.21032 | 118.45770 | 31972 ft | 383 kts | 260° |
| 2026-05-05 23:41 | 41.19663 | 118.38939 | 31971 ft | 382 kts | 260° |
| 2026-05-05 23:41 | 41.18298 | 118.32108 | 31973 ft | 384 kts | 259° |
| 2026-05-05 23:42 | 41.16940 | 118.25285 | 31971 ft | 383 kts | 260° |
| 2026-05-05 23:42 | 41.15580 | 118.18433 | 31968 ft | 383 kts | 259° |
| 2026-05-05 23:43 | 41.14238 | 118.11714 | 31956 ft | 383 kts | 259° |
| 2026-05-05 23:43 | 41.12872 | 118.04890 | 31940 ft | 383 kts | 260° |
| 2026-05-05 23:44 | 41.11676 | 117.98051 | 31950 ft | 382 kts | 263° |
| 2026-05-05 23:44 | 41.10632 | 117.91131 | 31935 ft | 380 kts | 263° |
| 2026-05-05 23:45 | 41.09594 | 117.84261 | 31932 ft | 384 kts | 262° |
| 2026-05-05 23:45 | 41.08524 | 117.77354 | 31947 ft | 382 kts | 262° |
| 2026-05-05 23:46 | 41.07441 | 117.70494 | 31940 ft | 380 kts | 262° |
| 2026-05-05 23:46 | 41.06352 | 117.63638 | 31935 ft | 381 kts | 262° |
| 2026-05-05 23:47 | 41.05203 | 117.56819 | 31940 ft | 383 kts | 260° |
| 2026-05-05 23:47 | 41.03041 | 117.50269 | 31938 ft | 395 kts | 244° |
| 2026-05-05 23:48 | 40.99449 | 117.44634 | 31950 ft | 409 kts | 233° |
| 2026-05-05 23:48 | 40.94783 | 117.40117 | 31941 ft | 431 kts | 218° |
| 2026-05-05 23:49 | 40.89230 | 117.36954 | 31939 ft | 437 kts | 211° |
| 2026-05-05 23:49 | 40.83509 | 117.34141 | 31935 ft | 439 kts | 211° |
| 2026-05-05 23:50 | 40.77728 | 117.31310 | 31922 ft | 441 kts | 210° |
| 2026-05-05 23:50 | 40.73163 | 117.29050 | 31918 ft | 436 kts | 210° |
| 2026-05-05 23:51 | 40.68176 | 117.26592 | 31910 ft | 442 kts | 210° |
| 2026-05-05 23:51 | 40.62380 | 117.23847 | 31910 ft | 440 kts | 209° |
| 2026-05-05 23:52 | 40.59274 | 117.22401 | 31911 ft | 438 kts | 209° |
| 2026-05-05 23:52 | 40.53532 | 117.19718 | 31909 ft | 443 kts | 209° |
| 2026-05-05 23:53 | 40.48718 | 117.17468 | 31902 ft | 443 kts | 210° |
| 2026-05-05 23:53 | 40.42908 | 117.14741 | 31897 ft | 444 kts | 210° |
| 2026-05-05 23:54 | 40.37612 | 117.12255 | 31881 ft | 442 kts | 209° |
| 2026-05-05 23:54 | 40.31772 | 117.09519 | 31869 ft | 444 kts | 209° |
| 2026-05-05 23:55 | 40.25952 | 117.06799 | 31871 ft | 442 kts | 209° |
| 2026-05-05 23:55 | 40.20126 | 117.04075 | 31859 ft | 447 kts | 209° |
| 2026-05-05 23:56 | 40.14275 | 117.01350 | 31856 ft | 444 kts | 209° |
| 2026-05-05 23:56 | 40.08426 | 116.98628 | 31846 ft | 446 kts | 209° |
| 2026-05-05 23:57 | 40.02567 | 116.95908 | 31846 ft | 447 kts | 209° |
| 2026-05-05 23:57 | 39.96719 | 116.93208 | 31839 ft | 444 kts | 209° |
| 2026-05-05 23:58 | 39.90907 | 116.90512 | 31844 ft | 447 kts | 209° |
| 2026-05-05 23:58 | 39.85051 | 116.87804 | 31841 ft | 447 kts | 209° |
| 2026-05-05 23:59 | 39.79147 | 116.85075 | 31843 ft | 448 kts | 209° |
| 2026-05-05 23:59 | 39.73323 | 116.82351 | 31837 ft | 445 kts | 209° |
| 2026-05-06 00:00 | 39.67452 | 116.79576 | 31829 ft | 448 kts | 209° |
| 2026-05-06 00:00 | 39.61650 | 116.76843 | 31828 ft | 446 kts | 209° |
| 2026-05-06 00:01 | 39.55879 | 116.74126 | 31830 ft | 446 kts | 209° |
| 2026-05-06 00:01 | 39.50057 | 116.71403 | 31828 ft | 450 kts | 209° |
| 2026-05-06 00:02 | 39.44185 | 116.68658 | 31830 ft | 447 kts | 209° |
| 2026-05-06 00:02 | 39.38383 | 116.65957 | 31838 ft | 447 kts | 209° |
| 2026-05-06 00:03 | 39.32550 | 116.63238 | 31842 ft | 445 kts | 209° |
| 2026-05-06 00:03 | 39.26784 | 116.60316 | 31838 ft | 442 kts | 216° |
| 2026-05-06 00:04 | 39.24195 | 116.58311 | 31837 ft | 427 kts | 225° |
| 2026-05-06 00:04 | 39.21972 | 116.55850 | 31838 ft | 418 kts | 233° |
| 2026-05-06 00:04 | 39.18468 | 116.50028 | 31837 ft | 406 kts | 245° |
| 2026-05-06 00:05 | 39.16164 | 116.43515 | 31834 ft | 399 kts | 257° |
| 2026-05-06 00:05 | 39.15320 | 116.40075 | 31833 ft | 397 kts | 258° |
| 2026-05-06 00:06 | 39.13825 | 116.33270 | 31834 ft | 398 kts | 259° |
| 2026-05-06 00:06 | 39.12337 | 116.26485 | 31828 ft | 396 kts | 258° |
| 2026-05-06 00:07 | 39.10795 | 116.19675 | 31828 ft | 398 kts | 258° |
| 2026-05-06 00:07 | 39.09223 | 116.12859 | 31825 ft | 399 kts | 258° |
| 2026-05-06 00:08 | 39.07628 | 116.06018 | 31827 ft | 398 kts | 258° |
| 2026-05-06 00:08 | 39.06031 | 115.99215 | 31825 ft | 397 kts | 258° |
| 2026-05-06 00:09 | 39.04419 | 115.92379 | 31818 ft | 399 kts | 258° |
| 2026-05-06 00:09 | 39.02810 | 115.85569 | 31825 ft | 398 kts | 258° |
| 2026-05-06 00:10 | 39.01205 | 115.78783 | 31825 ft | 397 kts | 258° |
| 2026-05-06 00:10 | 38.99589 | 115.71985 | 31814 ft | 398 kts | 258° |
| 2026-05-06 00:11 | 38.97968 | 115.65170 | 31818 ft | 398 kts | 258° |
| 2026-05-06 00:11 | 38.96349 | 115.58397 | 31818 ft | 400 kts | 258° |
| 2026-05-06 00:12 | 38.94723 | 115.51618 | 31827 ft | 395 kts | 257° |
| 2026-05-06 00:12 | 38.92712 | 115.44997 | 31821 ft | 402 kts | 251° |
| 2026-05-06 00:13 | 38.90370 | 115.38482 | 31825 ft | 403 kts | 251° |
| 2026-05-06 00:13 | 38.88007 | 115.31952 | 31818 ft | 401 kts | 250° |
| 2026-05-06 00:14 | 38.85690 | 115.25469 | 31809 ft | 401 kts | 250° |
| 2026-05-06 00:14 | 38.83367 | 115.18918 | 31812 ft | 402 kts | 251° |
| 2026-05-06 00:15 | 38.81047 | 115.12363 | 31808 ft | 403 kts | 250° |
| 2026-05-06 00:15 | 38.78738 | 115.05856 | 31738 ft | 403 kts | 250° |
| 2026-05-06 00:15 | 38.77587 | 115.02611 | 31476 ft | 402 kts | 250° |
| 2026-05-06 00:16 | 38.76416 | 114.99313 | 31214 ft | 401 kts | 250° |
| 2026-05-06 00:16 | 38.75263 | 114.96065 | 30959 ft | 403 kts | 250° |
| 2026-05-06 00:16 | 38.74114 | 114.92823 | 30701 ft | 403 kts | 250° |
| 2026-05-06 00:16 | 38.72950 | 114.89542 | 30440 ft | 405 kts | 250° |
| 2026-05-06 00:17 | 38.71788 | 114.86279 | 30186 ft | 405 kts | 250° |
| 2026-05-06 00:17 | 38.70610 | 114.82978 | 29925 ft | 408 kts | 250° |
| 2026-05-06 00:17 | 38.69425 | 114.79657 | 29667 ft | 408 kts | 250° |
| 2026-05-06 00:17 | 38.68247 | 114.76360 | 29416 ft | 408 kts | 250° |
| 2026-05-06 00:18 | 38.67065 | 114.73059 | 29157 ft | 410 kts | 250° |
| 2026-05-06 00:18 | 38.65878 | 114.69743 | 28909 ft | 412 kts | 250° |
| 2026-05-06 00:18 | 38.64679 | 114.66393 | 28663 ft | 412 kts | 249° |
| 2026-05-06 00:18 | 38.63493 | 114.63077 | 28417 ft | 414 kts | 249° |
| 2026-05-06 00:19 | 38.62296 | 114.59737 | 28165 ft | 414 kts | 249° |
| 2026-05-06 00:19 | 38.61207 | 114.56719 | 27946 ft | 417 kts | 249° |
| 2026-05-06 00:19 | 38.59982 | 114.53339 | 27699 ft | 418 kts | 248° |
| 2026-05-06 00:19 | 38.58764 | 114.49994 | 27446 ft | 415 kts | 248° |
| 2026-05-06 00:20 | 38.57532 | 114.46607 | 27192 ft | 414 kts | 248° |
| 2026-05-06 00:20 | 38.56329 | 114.43289 | 26946 ft | 416 kts | 248° |
| 2026-05-06 00:20 | 38.55105 | 114.39912 | 26696 ft | 416 kts | 248° |
| 2026-05-06 00:20 | 38.53878 | 114.36538 | 26440 ft | 413 kts | 248° |
| 2026-05-06 00:21 | 38.52681 | 114.33247 | 26195 ft | 412 kts | 248° |
| 2026-05-06 00:21 | 38.51462 | 114.29898 | 25947 ft | 413 kts | 247° |
| 2026-05-06 00:21 | 38.50250 | 114.26566 | 25697 ft | 410 kts | 247° |
| 2026-05-06 00:21 | 38.49043 | 114.23261 | 25446 ft | 409 kts | 247° |
| 2026-05-06 00:22 | 38.47844 | 114.19974 | 25202 ft | 410 kts | 247° |
| 2026-05-06 00:22 | 38.46646 | 114.16693 | 24957 ft | 408 kts | 247° |
| 2026-05-06 00:22 | 38.45452 | 114.13425 | 24709 ft | 407 kts | 247° |
| 2026-05-06 00:22 | 38.44249 | 114.10136 | 24454 ft | 404 kts | 247° |
| 2026-05-06 00:23 | 38.43055 | 114.06870 | 24195 ft | 404 kts | 247° |
| 2026-05-06 00:23 | 38.41877 | 114.03655 | 23943 ft | 404 kts | 246° |
| 2026-05-06 00:23 | 38.40682 | 114.00396 | 23684 ft | 403 kts | 247° |
| 2026-05-06 00:23 | 38.39505 | 113.97189 | 23430 ft | 401 kts | 246° |
| 2026-05-06 00:24 | 38.38311 | 113.93938 | 23174 ft | 402 kts | 246° |
| 2026-05-06 00:24 | 38.37132 | 113.90733 | 22917 ft | 401 kts | 246° |
| 2026-05-06 00:24 | 38.35951 | 113.87525 | 22660 ft | 398 kts | 246° |
| 2026-05-06 00:24 | 38.34820 | 113.84459 | 22417 ft | 397 kts | 246° |
| 2026-05-06 00:25 | 38.33664 | 113.81329 | 22168 ft | 397 kts | 246° |
| 2026-05-06 00:25 | 38.32482 | 113.78165 | 21920 ft | 395 kts | 246° |
| 2026-05-06 00:25 | 38.31295 | 113.75007 | 21669 ft | 394 kts | 246° |
| 2026-05-06 00:25 | 38.30105 | 113.71858 | 21416 ft | 393 kts | 246° |
| 2026-05-06 00:26 | 38.28923 | 113.68735 | 21170 ft | 391 kts | 246° |
| 2026-05-06 00:26 | 38.27750 | 113.65636 | 20919 ft | 389 kts | 246° |
| 2026-05-06 00:26 | 38.26576 | 113.62540 | 20677 ft | 389 kts | 246° |
| 2026-05-06 00:26 | 38.25401 | 113.59440 | 20433 ft | 389 kts | 246° |
| 2026-05-06 00:27 | 38.24233 | 113.56358 | 20189 ft | 386 kts | 246° |
| 2026-05-06 00:27 | 38.23074 | 113.53306 | 19937 ft | 385 kts | 246° |
| 2026-05-06 00:27 | 38.21899 | 113.50213 | 19691 ft | 386 kts | 245° |
| 2026-05-06 00:27 | 38.20737 | 113.47155 | 19441 ft | 383 kts | 246° |
| 2026-05-06 00:28 | 38.19577 | 113.44106 | 19196 ft | 385 kts | 245° |
| 2026-05-06 00:28 | 38.18408 | 113.41035 | 18949 ft | 382 kts | 246° |
| 2026-05-06 00:28 | 38.17267 | 113.38041 | 18705 ft | 381 kts | 245° |
| 2026-05-06 00:28 | 38.16118 | 113.35020 | 18460 ft | 380 kts | 246° |
| 2026-05-06 00:29 | 38.14974 | 113.31976 | 18219 ft | 380 kts | 245° |
| 2026-05-06 00:29 | 38.13842 | 113.28928 | 17979 ft | 380 kts | 245° |
| 2026-05-06 00:29 | 38.12720 | 113.25903 | 17734 ft | 379 kts | 245° |
| 2026-05-06 00:29 | 38.11601 | 113.22885 | 17486 ft | 378 kts | 245° |
| 2026-05-06 00:30 | 38.10471 | 113.19847 | 17237 ft | 379 kts | 245° |
| 2026-05-06 00:30 | 38.09349 | 113.16837 | 16986 ft | 377 kts | 245° |
| 2026-05-06 00:30 | 38.08229 | 113.13844 | 16742 ft | 376 kts | 245° |
| 2026-05-06 00:30 | 38.07101 | 113.10834 | 16491 ft | 374 kts | 245° |
| 2026-05-06 00:31 | 38.05999 | 113.07896 | 16243 ft | 373 kts | 245° |
| 2026-05-06 00:31 | 38.04869 | 113.04885 | 15998 ft | 372 kts | 245° |
| 2026-05-06 00:31 | 38.03772 | 113.01965 | 15755 ft | 371 kts | 245° |
| 2026-05-06 00:31 | 38.02648 | 112.98981 | 15513 ft | 372 kts | 245° |
| 2026-05-06 00:32 | 38.01532 | 112.96018 | 15265 ft | 370 kts | 245° |
| 2026-05-06 00:32 | 38.00423 | 112.93076 | 15019 ft | 368 kts | 245° |
| 2026-05-06 00:32 | 37.99316 | 112.90146 | 14775 ft | 368 kts | 245° |
| 2026-05-06 00:32 | 37.98228 | 112.87264 | 14507 ft | 365 kts | 245° |
| 2026-05-06 00:33 | 37.97129 | 112.84358 | 14075 ft | 358 kts | 245° |
| 2026-05-06 00:33 | 37.96059 | 112.81531 | 13551 ft | 357 kts | 245° |
| 2026-05-06 00:33 | 37.95026 | 112.78805 | 12991 ft | 359 kts | 246° |
| 2026-05-06 00:33 | 37.93953 | 112.75975 | 12416 ft | 355 kts | 246° |
| 2026-05-06 00:34 | 37.92891 | 112.73177 | 11844 ft | 351 kts | 246° |
| 2026-05-06 00:34 | 37.91832 | 112.70390 | 11276 ft | 348 kts | 246° |
| 2026-05-06 00:34 | 37.90793 | 112.67656 | 10847 ft | 340 kts | 246° |
| 2026-05-06 00:34 | 37.90163 | 112.66002 | 10758 ft | 330 kts | 246° |
| 2026-05-06 00:35 | 37.89376 | 112.63790 | 10653 ft | 314 kts | 251° |
| 2026-05-06 00:35 | 37.88864 | 112.61271 | 10565 ft | 298 kts | 266° |
| 2026-05-06 00:35 | 37.88946 | 112.58663 | 10448 ft | 297 kts | 281° |
| 2026-05-06 00:35 | 37.89113 | 112.57697 | 10400 ft | 297 kts | 285° |
| 2026-05-06 00:36 | 37.89784 | 112.55262 | 10245 ft | 287 kts | 294° |
| 2026-05-06 00:36 | 37.90795 | 112.53159 | 10082 ft | 277 kts | 308° |
| 2026-05-06 00:36 | 37.92207 | 112.51540 | 9777 ft | 274 kts | 323° |
| 2026-05-06 00:36 | 37.93847 | 112.50324 | 9370 ft | 272 kts | 328° |
| 2026-05-06 00:37 | 37.95458 | 112.49120 | 9122 ft | 261 kts | 323° |
| 2026-05-06 00:37 | 37.96860 | 112.47770 | 9044 ft | 245 kts | 316° |
| 2026-05-06 00:37 | 37.98020 | 112.46285 | 8971 ft | 230 kts | 309° |
| 2026-05-06 00:37 | 37.98817 | 112.44625 | 8901 ft | 214 kts | 283° |
| 2026-05-06 00:38 | 37.98775 | 112.42811 | 8763 ft | 207 kts | 256° |
| 2026-05-06 00:38 | 37.98135 | 112.41168 | 8478 ft | 210 kts | 238° |
| 2026-05-06 00:38 | 37.97131 | 112.39819 | 8210 ft | 212 kts | 220° |
| 2026-05-06 00:38 | 37.95779 | 112.39050 | 7954 ft | 215 kts | 201° |
| 2026-05-06 00:39 | 37.94400 | 112.38394 | 7694 ft | 208 kts | 215° |
| 2026-05-06 00:39 | 37.93246 | 112.37363 | 7450 ft | 202 kts | 221° |
| 2026-05-06 00:39 | 37.91988 | 112.36590 | 7202 ft | 206 kts | 191° |
| 2026-05-06 00:39 | 37.90601 | 112.36975 | 7079 ft | 207 kts | 149° |
| 2026-05-06 00:40 | 37.89525 | 112.38212 | 6946 ft | 209 kts | 133° |
| 2026-05-06 00:40 | 37.88607 | 112.39642 | 6696 ft | 206 kts | 130° |
| 2026-05-06 00:40 | 37.87751 | 112.41051 | 6491 ft | 200 kts | 129° |
| 2026-05-06 00:40 | 37.86902 | 112.42459 | 6215 ft | 201 kts | 129° |
| 2026-05-06 00:41 | 37.86060 | 112.43868 | 5938 ft | 200 kts | 128° |
| 2026-05-06 00:41 | 37.85232 | 112.45260 | 5686 ft | 197 kts | 128° |
| 2026-05-06 00:41 | 37.84409 | 112.46635 | 5443 ft | 193 kts | 128° |
| 2026-05-06 00:41 | 37.83598 | 112.47992 | 5168 ft | 192 kts | 128° |
| 2026-05-06 00:42 | 37.82806 | 112.49317 | 4885 ft | 182 kts | 128° |
| 2026-05-06 00:42 | 37.82071 | 112.50545 | 4683 ft | 168 kts | 128° |
| 2026-05-06 00:42 | 37.81380 | 112.51701 | 4422 ft | 162 kts | 128° |
| 2026-05-06 00:42 | 37.80697 | 112.52841 | 4233 ft | 161 kts | 128° |
| 2026-05-06 00:43 | 37.80027 | 112.53961 | 4021 ft | 159 kts | 127° |
| 2026-05-06 00:43 | 37.79357 | 112.55080 | 3810 ft | 156 kts | 127° |
| 2026-05-06 00:43 | 37.78708 | 112.56162 | 3609 ft | 155 kts | 127° |
| 2026-05-06 00:43 | 37.78056 | 112.57252 | 3405 ft | 154 kts | 127° |
| 2026-05-06 00:44 | 37.77408 | 112.58331 | 3194 ft | 152 kts | 127° |
| 2026-05-06 00:44 | 37.76768 | 112.59398 | 2998 ft | 152 kts | 127° |
| 2026-05-06 00:44 | 37.76133 | 112.60449 | 2791 ft | 151 kts | 127° |
| 2026-05-06 00:44 | 37.75496 | 112.61499 | 2611 ft | 147 kts | 127° |
| 2026-05-06 00:45 | 37.74934 | 112.62440 | 2588 ft | 107 kts | 127° |
| 2026-05-06 00:45 | 37.74622 | 112.62967 | 2588 ft | 48 kts | 128° |
| 2026-05-06 00:45 | 37.74527 | 112.63163 | 2588 ft | 16 kts | 110° |
| 2026-05-06 00:45 | 37.74499 | 112.63301 | 2588 ft | 15 kts | 98° |
| 2026-05-06 00:46 | 37.74492 | 112.63393 | 2588 ft | 7 kts | 89° |
| 2026-05-06 00:46 | 37.74524 | 112.63439 | 2588 ft | 7 kts | 6° |
| 2026-05-06 00:46 | 37.74569 | 112.63405 | 2588 ft | 7 kts | 309° |
| 2026-05-06 00:46 | 37.74601 | 112.63348 | 2588 ft | 8 kts | 306° |
| 2026-05-06 00:47 | 37.74636 | 112.63289 | 2588 ft | 8 kts | 307° |
| 2026-05-06 00:47 | 37.74683 | 112.63210 | 2588 ft | 13 kts | 307° |
| 2026-05-06 00:47 | 37.74745 | 112.63106 | 2588 ft | 15 kts | 307° |
| 2026-05-06 00:47 | 37.74804 | 112.63008 | 2588 ft | 11 kts | 307° |
| 2026-05-06 00:48 | 37.74861 | 112.62973 | 2588 ft | 9 kts | 37° |
| 2026-05-06 00:48 | 37.74917 | 112.63028 | 2588 ft | 10 kts | 38° |
| 2026-05-06 00:48 | 37.74961 | 112.63072 | 2588 ft | 5 kts | 38° |
| 2026-05-06 00:48 | 37.74997 | 112.63085 | 2588 ft | 5 kts | 352° |
| 2026-05-06 00:49 | 37.75037 | 112.63077 | 2588 ft | 5 kts | 353° |
| 2026-05-06 00:49 | 37.75074 | 112.63071 | 2588 ft | 4 kts | 352° |
| 2026-05-06 00:49 | 37.75094 | 112.63067 | 2588 ft | 0 kts | 352° |